Time;durP1;ratioP1;P1;durP2;ratioP2;P2;SDS_P1;SDS_P2;PMS_P1;PMS_P2;Temp;Humidity;BMP_temperature;BMP_pressure;BME280_temperature;BME280_humidity;BME280_pressure;Samples;Min_cycle;Max_cycle;Signal;HPM_P1;HPM_P2
2022/09/12 00:00:14;;;;;;;1.8;1.2;;;;;;;10.99;93.28906;940.1505;;;;
2022/09/12 00:02:38;;;;;;;1.4;1.3;;;;;;;10.98;92.94434;940.1577;;;;
2022/09/12 00:05:06;;;;;;;1.9;1.4;;;;;;;10.84;93.93066;940.1401;;;;
2022/09/12 00:07:30;;;;;;;2.8;1.2;;;;;;;10.84;93.79297;940.1417;;;;
2022/09/12 00:09:57;;;;;;;3.1;1.5;;;;;;;10.81;94.01563;940.1008;;;;
2022/09/12 00:12:22;;;;;;;1.8;1.3;;;;;;;10.71;94.61133;940.1869;;;;
2022/09/12 00:14:54;;;;;;;1.5;1.4;;;;;;;10.69;94.82227;940.1453;;;;
2022/09/12 00:17:19;;;;;;;1.2;1.1;;;;;;;10.72;94.77148;940.1616;;;;
2022/09/12 00:19:45;;;;;;;1.3;1.1;;;;;;;10.71;94.7373;940.1336;;;;
2022/09/12 00:22:10;;;;;;;2;1.6;;;;;;;10.45;95.43262;940.1191;;;;
2022/09/12 00:24:39;;;;;;;2.2;1.5;;;;;;;10.38;96.3418;940.1425;;;;
2022/09/12 00:29:27;;;;;;;3.6;1.3;;;;;;;10.52;95.35547;940.0983;;;;
2022/09/12 00:31:52;;;;;;;1.6;1.5;;;;;;;10.51;95.27344;940.0513;;;;
2022/09/12 00:34:17;;;;;;;2.6;2.4;;;;;;;10.49;96.0459;940.0064;;;;
2022/09/12 00:36:47;;;;;;;3.9;1.3;;;;;;;10.55;95.46582;940.0262;;;;
2022/09/12 00:39:12;;;;;;;3.8;1.7;;;;;;;10.49;94.82422;940.0869;;;;
2022/09/12 00:41:37;;;;;;;1.5;1.4;;;;;;;10.44;95.06543;940.0393;;;;
2022/09/12 00:44:03;;;;;;;1.6;1.2;;;;;;;10.44;94.81445;940.0416;;;;
2022/09/12 00:46:28;;;;;;;2.8;1.2;;;;;;;10.36;94.84277;940.007;;;;
2022/09/12 00:48:53;;;;;;;2.9;1.3;;;;;;;10.35;94.86328;939.9479;;;;
2022/09/12 00:51:18;;;;;;;1.8;1.4;;;;;;;10.33;95.02832;939.9787;;;;
2022/09/12 00:53:43;;;;;;;2.1;1.6;;;;;;;10.33;94.99609;939.9827;;;;
2022/09/12 00:56:09;;;;;;;1.8;1.1;;;;;;;10.42;94.1709;939.9467;;;;
2022/09/12 00:58:35;;;;;;;1.3;1.2;;;;;;;10.34;94.43848;939.9382;;;;
2022/09/12 01:01:01;;;;;;;1.2;1.1;;;;;;;10.35;94.22363;939.9152;;;;
2022/09/12 01:03:26;;;;;;;1.3;1.2;;;;;;;10.14;94.90723;939.8823;;;;
2022/09/12 01:05:56;;;;;;;1.3;1.2;;;;;;;9.86;96.40918;939.8806;;;;
2022/09/12 01:08:21;;;;;;;4.1;1.7;;;;;;;9.87;96.62793;939.845;;;;
2022/09/12 01:10:46;;;;;;;1.4;1.3;;;;;;;9.91;96.29395;939.8416;;;;
2022/09/12 01:13:16;;;;;;;1.4;1.3;;;;;;;9.88;97.34766;939.7625;;;;
2022/09/12 01:15:42;;;;;;;1.2;1.1;;;;;;;9.92;96.90039;939.7455;;;;
2022/09/12 01:18:08;;;;;;;1.2;1.1;;;;;;;9.98;97.81543;939.7193;;;;
2022/09/12 01:20:32;;;;;;;2.6;1.3;;;;;;;9.98;98.15723;939.6318;;;;
2022/09/12 01:22:57;;;;;;;1.6;1.3;;;;;;;10.05;97.84277;939.5933;;;;
2022/09/12 01:25:23;;;;;;;2.4;1.2;;;;;;;10.17;97.44531;939.5789;;;;
2022/09/12 01:27:48;;;;;;;1.3;1.2;;;;;;;10.13;96.58203;939.5433;;;;
2022/09/12 01:30:17;;;;;;;1.4;1.3;;;;;;;10.03;96.96973;939.5675;;;;
2022/09/12 01:32:42;;;;;;;1.3;1.2;;;;;;;9.98;97.07227;939.5569;;;;
2022/09/12 01:35:15;;;;;;;2.1;1.2;;;;;;;10.04;96.29004;939.4857;;;;
2022/09/12 01:37:40;;;;;;;1.5;1.1;;;;;;;10.09;96.20703;939.5109;;;;
2022/09/12 01:40:05;;;;;;;1.6;1.3;;;;;;;10.02;96.30664;939.5187;;;;
2022/09/12 01:42:30;;;;;;;3.6;1.3;;;;;;;9.97;96.19238;939.5162;;;;
2022/09/12 01:44:55;;;;;;;1.8;1.2;;;;;;;9.84;96.28906;939.5017;;;;
2022/09/12 01:47:20;;;;;;;2.7;1.5;;;;;;;9.81;96.20313;939.4728;;;;
2022/09/12 01:49:47;;;;;;;1.1;1;;;;;;;9.87;95.76172;939.4258;;;;
2022/09/12 01:52:11;;;;;;;1.2;1.1;;;;;;;9.83;96.16211;939.4166;;;;
2022/09/12 01:54:36;;;;;;;1.9;1.5;;;;;;;9.74;95.89063;939.4292;;;;
2022/09/12 01:57:01;;;;;;;1.7;1.1;;;;;;;9.69;95.87891;939.4389;;;;
2022/09/12 01:59:26;;;;;;;1.5;1.2;;;;;;;9.52;96.49023;939.3995;;;;
2022/09/12 02:01:53;;;;;;;1.5;1.4;;;;;;;9.47;97.0498;939.46;;;;
2022/09/12 02:04:54;;;;;;;1.3;1.2;;;;;;;9.5;96.81836;939.3984;;;;
2022/09/12 02:07:19;;;;;;;1.6;1;;;;;;;9.59;96.36035;939.3514;;;;
2022/09/12 02:09:44;;;;;;;2;1.3;;;;;;;9.66;95.33887;939.3279;;;;
2022/09/12 02:12:09;;;;;;;2.5;1.3;;;;;;;9.48;96.2334;939.3067;;;;
2022/09/12 02:14:34;;;;;;;1.5;1.4;;;;;;;9.33;96.54102;939.3367;;;;
2022/09/12 02:17:01;;;;;;;1.5;1.2;;;;;;;9.26;97.90234;939.2721;;;;
2022/09/12 02:19:57;;;;;;;0.9;0.9;;;;;;;9.25;97.51465;939.2902;;;;
2022/09/12 02:22:32;;;;;;;4.3;1.3;;;;;;;9.17;97.97266;939.2743;;;;
2022/09/12 02:24:57;;;;;;;1.1;0.9;;;;;;;9.22;97.94824;939.2238;;;;
2022/09/12 02:27:23;;;;;;;2.1;1.2;;;;;;;9.02;98.98633;939.1933;;;;
2022/09/12 02:29:48;;;;;;;1.7;1.2;;;;;;;9.03;99.09082;939.2252;;;;
2022/09/12 02:32:17;;;;;;;1.8;1.1;;;;;;;8.96;99.78906;939.1713;;;;
2022/09/12 02:34:48;;;;;;;1.1;1;;;;;;;8.94;100;939.1479;;;;
2022/09/12 02:43:00;;;;;;;1.7;1.2;;;;;;;8.92;100;939.1715;;;;
2022/09/12 02:45:33;;;;;;;2;1.3;;;;;;;8.93;100;939.0723;;;;
2022/09/12 02:48:01;;;;;;;1.5;1.4;;;;;;;8.91;100;939.1481;;;;
2022/09/12 02:50:26;;;;;;;1.8;1.3;;;;;;;9.02;100;939.1114;;;;
2022/09/12 02:56:46;;;;;;;2.8;1.8;;;;;;;9.21;99.91602;939.1855;;;;
2022/09/12 02:59:11;;;;;;;3.1;1.7;;;;;;;9.36;99.2002;939.1496;;;;
2022/09/12 03:01:36;;;;;;;8.2;3.1;;;;;;;9.29;98.58203;939.1542;;;;
2022/09/12 03:04:01;;;;;;;6.6;2.8;;;;;;;9.2;98.35645;939.1739;;;;
2022/09/12 03:07:04;;;;;;;4.5;2;;;;;;;9.13;98.61328;939.1577;;;;
2022/09/12 03:09:21;;;;;;;4;1.8;;;;;;;9.09;98.54395;939.1411;;;;
2022/09/12 03:11:45;;;;;;;2.1;1.2;;;;;;;9.13;98.10059;939.1188;;;;
2022/09/12 03:14:11;;;;;;;1.6;1.3;;;;;;;9.23;97.88477;939.046;;;;
2022/09/12 03:16:36;;;;;;;1.9;1.3;;;;;;;9.06;98.76465;939.0754;;;;
2022/09/12 03:19:03;;;;;;;3.4;1.7;;;;;;;8.86;100;939.0552;;;;
2022/09/12 03:21:29;;;;;;;2.3;1.5;;;;;;;9.03;99.43066;939.0941;;;;
2022/09/12 03:23:55;;;;;;;2.1;1.6;;;;;;;9;98.77734;939.0544;;;;
2022/09/12 03:26:20;;;;;;;1.8;1.4;;;;;;;8.71;99.90332;939.1255;;;;
2022/09/12 03:28:45;;;;;;;2.1;1.3;;;;;;;8.63;100;939.0399;;;;
2022/09/12 03:31:12;;;;;;;2.3;1.6;;;;;;;8.63;100;939.0399;;;;
2022/09/12 03:33:37;;;;;;;1.9;1.5;;;;;;;8.64;100;939.0575;;;;
2022/09/12 03:36:06;;;;;;;1.8;1.4;;;;;;;8.73;100;938.9519;;;;
2022/09/12 03:38:31;;;;;;;1.4;1.2;;;;;;;8.87;100;938.9991;;;;
2022/09/12 03:40:58;;;;;;;1.6;1.4;;;;;;;8.74;99.64746;939.033;;;;
2022/09/12 03:43:23;;;;;;;1.5;1.4;;;;;;;8.58;100;939.0085;;;;
2022/09/12 03:45:52;;;;;;;4.4;1.4;;;;;;;8.57;99.97363;939.009;;;;
2022/09/12 03:48:16;;;;;;;1.5;1.4;;;;;;;8.63;99.7793;938.9827;;;;
2022/09/12 03:50:44;;;;;;;1.4;1.3;;;;;;;8.73;98.80469;938.8898;;;;
2022/09/12 03:53:09;;;;;;;1.9;1.3;;;;;;;8.72;99.72363;939.0104;;;;
2022/09/12 03:55:35;;;;;;;1.3;1.2;;;;;;;8.64;99.75;938.9272;;;;
2022/09/12 03:58:00;;;;;;;2;1.6;;;;;;;8.47;100;938.8978;;;;
2022/09/12 04:02:31;;;;;;;1.9;1.5;;;;;;;8.59;100;938.9055;;;;
2022/09/12 04:05:00;;;;;;;3.4;1.3;;;;;;;8.68;99.04199;938.9305;;;;
2022/09/12 04:07:25;;;;;;;1.4;1.3;;;;;;;8.49;99.47754;938.8783;;;;
2022/09/12 04:10:52;;;;;;;2.4;1.3;;;;;;;8.58;99.28223;938.9348;;;;
2022/09/12 04:13:17;;;;;;;2.3;1.6;;;;;;;8.45;98.96777;938.9283;;;;
2022/09/12 04:15:42;;;;;;;2.1;1.8;;;;;;;8.42;99.67676;938.9556;;;;
2022/09/12 04:18:07;;;;;;;1.8;1.5;;;;;;;8.48;99.55273;938.9528;;;;
2022/09/12 04:20:35;;;;;;;3.4;1.8;;;;;;;8.38;100;938.926;;;;
2022/09/12 04:23:05;;;;;;;3.4;1.9;;;;;;;8.45;100;938.861;;;;
2022/09/12 04:25:30;;;;;;;6.4;2.2;;;;;;;8.51;99.81152;938.9247;;;;
2022/09/12 04:27:58;;;;;;;3.8;2;;;;;;;8.61;99.04102;938.9308;;;;
2022/09/12 04:30:23;;;;;;;3.4;1.9;;;;;;;8.53;99.00879;939.0203;;;;
2022/09/12 04:32:49;;;;;;;4;1.9;;;;;;;8.42;99.41602;939.019;;;;
2022/09/12 04:35:14;;;;;;;2.9;2.1;;;;;;;8.43;99.53125;938.955;;;;
2022/09/12 04:37:43;;;;;;;3.4;2;;;;;;;8.45;99.39941;938.995;;;;
2022/09/12 04:40:08;;;;;;;3.4;1.7;;;;;;;8.62;98.37012;939.0436;;;;
2022/09/12 04:42:36;;;;;;;2.2;2;;;;;;;8.42;99.24512;939.0229;;;;
2022/09/12 04:45:07;;;;;;;2.9;2;;;;;;;8.45;99.42188;939.0481;;;;
2022/09/12 04:47:36;;;;;;;1.9;1.8;;;;;;;8.6;98.95703;939.0764;;;;
2022/09/12 04:50:01;;;;;;;2.3;1.6;;;;;;;8.73;97.94043;939.0893;;;;
2022/09/12 04:52:26;;;;;;;2.8;1.8;;;;;;;8.81;97.10352;939.0247;;;;
2022/09/12 04:54:52;;;;;;;2.1;1.9;;;;;;;8.62;97.5293;939.0825;;;;
2022/09/12 04:57:17;;;;;;;3.7;2;;;;;;;8.64;98.06738;939.0678;;;;
2022/09/12 04:59:43;;;;;;;3.9;2.6;;;;;;;8.74;96.94336;939.0259;;;;
2022/09/12 05:02:08;;;;;;;3.3;2.3;;;;;;;8.76;96.76367;939.0961;;;;
2022/09/12 05:04:36;;;;;;;2.1;1.9;;;;;;;8.75;95.875;939.0673;;;;
2022/09/12 05:07:01;;;;;;;2.2;1.7;;;;;;;8.5;97.0918;939.065;;;;
2022/09/12 05:09:29;;;;;;;2.2;1.7;;;;;;;8.45;97.21777;939.0045;;;;
2022/09/12 05:11:54;;;;;;;3.1;1.8;;;;;;;8.42;97.80176;939.0549;;;;
2022/09/12 05:14:20;;;;;;;3.6;1.6;;;;;;;8.48;97.33887;939.0662;;;;
2022/09/12 05:16:49;;;;;;;3;1.6;;;;;;;8.38;98.03027;939.1038;;;;
2022/09/12 05:19:18;;;;;;;3;1.7;;;;;;;8.33;98.33789;939.1177;;;;
2022/09/12 05:21:48;;;;;;;2.6;1.6;;;;;;;8.54;98.04492;939.0983;;;;
2022/09/12 05:24:19;;;;;;;3;1.6;;;;;;;8.42;97.87012;939.058;;;;
2022/09/12 05:26:44;;;;;;;5.6;2;;;;;;;8.23;98.70215;939.1561;;;;
2022/09/12 05:29:13;;;;;;;2.5;1.5;;;;;;;8.39;98.4209;939.1476;;;;
2022/09/12 05:31:38;;;;;;;3.4;2;;;;;;;8.66;96.88965;939.0698;;;;
2022/09/12 05:34:08;;;;;;;3.4;1.6;;;;;;;8.52;97.4834;939.1615;;;;
2022/09/12 05:36:37;;;;;;;3;1.6;;;;;;;8.65;97.11621;939.2252;;;;
2022/09/12 05:39:03;;;;;;;2.8;2.1;;;;;;;8.73;97.07617;939.1925;;;;
2022/09/12 05:41:32;;;;;;;2.8;2.2;;;;;;;9;97.92188;939.052;;;;
2022/09/12 05:43:56;;;;;;;3.5;2.1;;;;;;;9.92;94.55176;939.1934;;;;
2022/09/12 05:46:24;;;;;;;2;1.6;;;;;;;10.74;90.45898;939.1415;;;;
2022/09/12 05:48:55;;;;;;;1.6;1.1;;;;;;;11.66;85.75195;939.1171;;;;
2022/09/12 05:51:20;;;;;;;1.3;0.7;;;;;;;;;;;;;
2022/09/12 05:53:45;;;;;;;2.3;1;;;;;;;;;;;;;
2022/09/12 05:56:12;;;;;;;1.9;0.7;;;;;;;;;;;;;
2022/09/12 05:58:37;;;;;;;1.3;0.8;;;;;;;;;;;;;
2022/09/12 06:01:03;;;;;;;1.4;0.9;;;;;;;;;;;;;
2022/09/12 06:03:31;;;;;;;1.3;0.7;;;;;;;;;;;;;
2022/09/12 06:05:56;;;;;;;2.8;0.6;;;;;;;;;;;;;
2022/09/12 06:08:21;;;;;;;1.3;0.7;;;;;;;;;;;;;
2022/09/12 06:10:48;;;;;;;3.5;0.9;;;;;;;;;;;;;
2022/09/12 06:13:12;;;;;;;2.3;1.1;;;;;;;;;;;;;
2022/09/12 06:15:39;;;;;;;2.9;0.9;;;;;;;;;;;;;
2022/09/12 06:18:04;;;;;;;2.8;1;;;;;;;;;;;;;
2022/09/12 06:20:30;;;;;;;0.5;0.5;;;;;;;;;;;;;
2022/09/12 06:22:54;;;;;;;2.3;1.1;;;;;;;;;;;;;
2022/09/12 06:25:20;;;;;;;1.2;0.6;;;;;;;;;;;;;
2022/09/12 06:27:46;;;;;;;0.6;0.6;;;;;;;;;;;;;
2022/09/12 06:30:10;;;;;;;1.9;0.8;;;;;;;;;;;;;
2022/09/12 06:32:35;;;;;;;1;0.7;;;;;;;;;;;;;
2022/09/12 06:35:00;;;;;;;0.6;0.6;;;;;;;;;;;;;
2022/09/12 06:37:26;;;;;;;0.6;0.6;;;;;;;;;;;;;
2022/09/12 06:39:51;;;;;;;1.3;0.6;;;;;;;;;;;;;
2022/09/12 06:42:18;;;;;;;0.7;0.7;;;;;;;;;;;;;
2022/09/12 06:44:43;;;;;;;0.5;0.5;;;;;;;;;;;;;
2022/09/12 06:47:08;;;;;;;1.7;0.7;;;;;;;;;;;;;
2022/09/12 06:49:34;;;;;;;0.6;0.6;;;;;;;;;;;;;
2022/09/12 06:51:59;;;;;;;2;0.7;;;;;;;;;;;;;
2022/09/12 06:54:25;;;;;;;1.3;0.7;;;;;;;;;;;;;
2022/09/12 06:56:50;;;;;;;0.6;0.6;;;;;;;;;;;;;
2022/09/12 06:59:15;;;;;;;0.5;0.5;;;;;;;;;;;;;
2022/09/12 07:01:42;;;;;;;0.7;0.7;;;;;;;;;;;;;
2022/09/12 07:04:07;;;;;;;1.7;0.5;;;;;;;;;;;;;
2022/09/12 07:06:33;;;;;;;0.5;0.5;;;;;;;;;;;;;
2022/09/12 07:08:58;;;;;;;0.8;0.5;;;;;;;;;;;;;
2022/09/12 07:11:23;;;;;;;0.3;0.3;;;;;;;;;;;;;
2022/09/12 07:13:48;;;;;;;0.6;0.6;;;;;;;;;;;;;
2022/09/12 07:16:13;;;;;;;0.6;0.6;;;;;;;;;;;;;
2022/09/12 07:18:42;;;;;;;1.1;0.6;;;;;;;;;;;;;
2022/09/12 07:21:06;;;;;;;1.4;0.6;;;;;;;;;;;;;
2022/09/12 07:23:31;;;;;;;0.8;0.7;;;;;;;;;;;;;
2022/09/12 07:25:57;;;;;;;0.6;0.6;;;;;;;;;;;;;
2022/09/12 07:28:22;;;;;;;0.6;0.5;;;;;;;;;;;;;
2022/09/12 07:30:47;;;;;;;0.8;0.5;;;;;;;;;;;;;
2022/09/12 07:33:14;;;;;;;1;0.4;;;;;;;;;;;;;
2022/09/12 07:35:39;;;;;;;0.5;0.5;;;;;;;;;;;;;
2022/09/12 07:38:05;;;;;;;0.8;0.6;;;;;;;;;;;;;
2022/09/12 07:40:30;;;;;;;0.4;0.4;;;;;;;;;;;;;
2022/09/12 07:42:56;;;;;;;0.4;0.4;;;;;;;;;;;;;
2022/09/12 07:45:21;;;;;;;1;0.5;;;;;;;;;;;;;
2022/09/12 07:47:48;;;;;;;0.6;0.6;;;;;;;;;;;;;
2022/09/12 07:50:12;;;;;;;0.4;0.4;;;;;;;;;;;;;
2022/09/12 07:52:40;;;;;;;1.3;0.5;;;;;;;;;;;;;
2022/09/12 07:55:06;;;;;;;0.7;0.5;;;;;;;;;;;;;
2022/09/12 07:57:31;;;;;;;0.8;0.5;;;;;;;;;;;;;
2022/09/12 07:59:56;;;;;;;2.2;0.7;;;;;;;;;;;;;
2022/09/12 08:02:22;;;;;;;0.4;0.4;;;;;;;;;;;;;
2022/09/12 08:04:47;;;;;;;1.3;0.7;;;;;;;;;;;;;
2022/09/12 08:07:12;;;;;;;0.6;0.6;;;;;;;;;;;;;
2022/09/12 08:09:37;;;;;;;1.4;0.5;;;;;;;;;;;;;
2022/09/12 08:12:02;;;;;;;2.2;0.6;;;;;;;;;;;;;
2022/09/12 08:14:28;;;;;;;0.9;0.6;;;;;;;;;;;;;
2022/09/12 08:16:52;;;;;;;0.5;0.5;;;;;;;;;;;;;
2022/09/12 08:19:18;;;;;;;2;0.6;;;;;;;;;;;;;
2022/09/12 08:21:44;;;;;;;0.4;0.4;;;;;;;;;;;;;
2022/09/12 08:24:09;;;;;;;0.5;0.4;;;;;;;;;;;;;
2022/09/12 08:26:35;;;;;;;0.5;0.5;;;;;;;;;;;;;
2022/09/12 08:29:00;;;;;;;0.4;0.3;;;;;;;;;;;;;
2022/09/12 08:31:25;;;;;;;0.4;0.4;;;;;;;;;;;;;
2022/09/12 08:33:50;;;;;;;1;0.3;;;;;;;;;;;;;
2022/09/12 08:36:18;;;;;;;0.8;0.5;;;;;;;;;;;;;
2022/09/12 08:38:42;;;;;;;1.5;0.4;;;;;;;;;;;;;
2022/09/12 08:41:08;;;;;;;0.3;0.3;;;;;;;;;;;;;
2022/09/12 08:43:33;;;;;;;0.5;0.5;;;;;;;;;;;;;
2022/09/12 08:45:59;;;;;;;1;0.6;;;;;;;;;;;;;
2022/09/12 08:48:23;;;;;;;0.5;0.5;;;;;;;;;;;;;
2022/09/12 08:50:48;;;;;;;0.8;0.5;;;;;;;;;;;;;
2022/09/12 08:53:13;;;;;;;1.8;0.5;;;;;;;;;;;;;
2022/09/12 08:55:41;;;;;;;1.2;0.4;;;;;;;;;;;;;
2022/09/12 08:58:06;;;;;;;1.1;0.4;;;;;;;;;;;;;
2022/09/12 09:00:33;;;;;;;0.7;0.4;;;;;;;;;;;;;
2022/09/12 09:03:03;;;;;;;0.4;0.3;;;;;;;;;;;;;
2022/09/12 09:05:28;;;;;;;0.9;0.4;;;;;;;;;;;;;
2022/09/12 09:07:53;;;;;;;0.6;0.6;;;;;;;;;;;;;
2022/09/12 09:10:18;;;;;;;0.5;0.5;;;;;;;;;;;;;
2022/09/12 09:12:43;;;;;;;0.3;0.2;;;;;;;;;;;;;
2022/09/12 09:15:20;;;;;;;0.9;0.3;;;;;;;;;;;;;
2022/09/12 09:17:42;;;;;;;1.4;0.5;;;;;;;;;;;;;
2022/09/12 09:20:07;;;;;;;0.2;0.2;;;;;;;;;;;;;
2022/09/12 09:22:32;;;;;;;0.9;0.4;;;;;;;;;;;;;
2022/09/12 09:24:58;;;;;;;1.1;0.3;;;;;;;;;;;;;
2022/09/12 09:27:25;;;;;;;0.4;0.4;;;;;;;;;;;;;
2022/09/12 09:29:50;;;;;;;0.4;0.3;;;;;;;;;;;;;
2022/09/12 09:32:15;;;;;;;0.3;0.3;;;;;;;;;;;;;
2022/09/12 09:34:40;;;;;;;0.5;0.3;;;;;;;;;;;;;
2022/09/12 09:37:08;;;;;;;0.4;0.3;;;;;;;;;;;;;
2022/09/12 09:39:33;;;;;;;2.5;0.3;;;;;;;;;;;;;
2022/09/12 09:41:58;;;;;;;0.2;0.2;;;;;;;;;;;;;
2022/09/12 09:44:25;;;;;;;1.1;0.3;;;;;;;;;;;;;
2022/09/12 09:46:50;;;;;;;0.3;0.2;;;;;;;;;;;;;
2022/09/12 09:49:15;;;;;;;0.6;0.4;;;;;;;;;;;;;
2022/09/12 09:51:40;;;;;;;1.2;0.3;;;;;;;;;;;;;
2022/09/12 09:54:05;;;;;;;0.4;0.4;;;;;;;;;;;;;
2022/09/12 09:56:31;;;;;;;1.1;0.5;;;;;;;;;;;;;
2022/09/12 09:58:57;;;;;;;0.3;0.3;;;;;;;;;;;;;
2022/09/12 10:01:22;;;;;;;0.4;0.4;;;;;;;;;;;;;
2022/09/12 10:03:47;;;;;;;2.1;0.4;;;;;;;;;;;;;
2022/09/12 10:06:12;;;;;;;0.4;0.4;;;;;;;;;;;;;
2022/09/12 10:08:37;;;;;;;1.5;0.4;;;;;;;;;;;;;
2022/09/12 10:11:02;;;;;;;0.7;0.6;;;;;;;;;;;;;
2022/09/12 10:13:34;;;;;;;1;0.6;;;;;;;;;;;;;
2022/09/12 10:15:59;;;;;;;0.4;0.4;;;;;;;;;;;;;
2022/09/12 10:18:24;;;;;;;0.3;0.3;;;;;;;;;;;;;
2022/09/12 10:20:49;;;;;;;2.6;0.5;;;;;;;;;;;;;
2022/09/12 10:23:15;;;;;;;0.4;0.4;;;;;;;;;;;;;
2022/09/12 10:25:40;;;;;;;0.3;0.3;;;;;;;;;;;;;
2022/09/12 10:28:05;;;;;;;0.7;0.4;;;;;;;;;;;;;
2022/09/12 10:30:31;;;;;;;0.8;0.5;;;;;;;;;;;;;
2022/09/12 10:32:56;;;;;;;0.9;0.3;;;;;;;;;;;;;
2022/09/12 10:35:21;;;;;;;0.3;0.3;;;;;;;;;;;;;
2022/09/12 10:37:46;;;;;;;1.3;0.2;;;;;;;;;;;;;
2022/09/12 10:40:11;;;;;;;0.1;0.1;;;;;;;;;;;;;
2022/09/12 10:42:36;;;;;;;1.6;0.3;;;;;;;;;;;;;
2022/09/12 10:45:02;;;;;;;0.4;0.3;;;;;;;;;;;;;
2022/09/12 10:47:46;;;;;;;0.5;0.3;;;;;;;;;;;;;
2022/09/12 10:50:11;;;;;;;0.3;0.2;;;;;;;;;;;;;
2022/09/12 10:52:41;;;;;;;0.2;0.2;;;;;;;;;;;;;
2022/09/12 10:55:07;;;;;;;0.3;0.3;;;;;;;;;;;;;
2022/09/12 10:57:32;;;;;;;1.1;0.4;;;;;;;;;;;;;
2022/09/12 10:59:57;;;;;;;0.3;0.3;;;;;;;;;;;;;
2022/09/12 11:02:22;;;;;;;0.4;0.3;;;;;;;;;;;;;
2022/09/12 11:04:47;;;;;;;0.2;0.2;;;;;;;;;;;;;
2022/09/12 11:07:15;;;;;;;0.3;0.3;;;;;;;;;;;;;
2022/09/12 11:09:41;;;;;;;0.4;0.4;;;;;;;;;;;;;
2022/09/12 11:12:06;;;;;;;0.4;0.4;;;;;;;;;;;;;
2022/09/12 11:14:32;;;;;;;0.3;0.3;;;;;;;;;;;;;
2022/09/12 11:16:57;;;;;;;0.4;0.4;;;;;;;;;;;;;
2022/09/12 11:19:25;;;;;;;4.2;1.4;;;;;;;;;;;;;
2022/09/12 11:21:50;;;;;;;5.3;1.7;;;;;;;;;;;;;
2022/09/12 11:24:15;;;;;;;4.6;1.6;;;;;;;;;;;;;
2022/09/12 11:26:40;;;;;;;5.7;1.6;;;;;;;;;;;;;
2022/09/12 11:29:05;;;;;;;0.4;0.4;;;;;;;;;;;;;
2022/09/12 11:31:30;;;;;;;0.4;0.4;;;;;;;;;;;;;
2022/09/12 11:33:59;;;;;;;0.4;0.3;;;;;;;;;;;;;
2022/09/12 11:36:24;;;;;;;0.3;0.3;;;;;;;;;;;;;
2022/09/12 11:38:49;;;;;;;0.3;0.3;;;;;;;;;;;;;
2022/09/12 11:41:14;;;;;;;0.5;0.3;;;;;;;;;;;;;
2022/09/12 11:43:41;;;;;;;0.5;0.4;;;;;;;;;;;;;
2022/09/12 11:46:06;;;;;;;0.5;0.5;;;;;;;;;;;;;
2022/09/12 11:48:32;;;;;;;0.4;0.4;;;;;;;;;;;;;
2022/09/12 11:50:57;;;;;;;0.4;0.4;;;;;;;;;;;;;
2022/09/12 11:53:25;;;;;;;0.4;0.4;;;;;;;;;;;;;
2022/09/12 11:55:49;;;;;;;0.3;0.3;;;;;;;;;;;;;
2022/09/12 11:58:17;;;;;;;0.4;0.4;;;;;;;;;;;;;
2022/09/12 12:00:43;;;;;;;1.3;0.6;;;;;;;;;;;;;
2022/09/12 12:03:08;;;;;;;0.4;0.4;;;;;;;;;;;;;
2022/09/12 12:05:33;;;;;;;0.5;0.5;;;;;;;;;;;;;
2022/09/12 12:07:59;;;;;;;0.4;0.4;;;;;;;;;;;;;
2022/09/12 12:10:25;;;;;;;0.4;0.4;;;;;;;;;;;;;
2022/09/12 12:12:51;;;;;;;1.5;0.6;;;;;;;;;;;;;
2022/09/12 12:15:16;;;;;;;1.4;0.5;;;;;;;;;;;;;
2022/09/12 12:17:43;;;;;;;0.5;0.5;;;;;;;;;;;;;
2022/09/12 12:20:09;;;;;;;0.6;0.4;;;;;;;;;;;;;
2022/09/12 12:22:34;;;;;;;0.5;0.5;;;;;;;;;;;;;
2022/09/12 12:24:59;;;;;;;0.7;0.7;;;;;;;;;;;;;
2022/09/12 12:27:24;;;;;;;0.5;0.5;;;;;;;;;;;;;
2022/09/12 12:29:50;;;;;;;0.4;0.3;;;;;;;;;;;;;
2022/09/12 12:32:16;;;;;;;1.7;0.5;;;;;;;;;;;;;
2022/09/12 12:34:40;;;;;;;0.7;0.4;;;;;;;;;;;;;
2022/09/12 12:37:09;;;;;;;0.4;0.4;;;;;;;;;;;;;
2022/09/12 12:39:33;;;;;;;0.8;0.5;;;;;;;;;;;;;
2022/09/12 12:41:59;;;;;;;1.7;0.6;;;;;;;;;;;;;
2022/09/12 12:44:24;;;;;;;0.5;0.5;;;;;;;;;;;;;
2022/09/12 12:46:49;;;;;;;0.4;0.4;;;;;;;;;;;;;
2022/09/12 12:49:14;;;;;;;0.2;0.2;;;;;;;;;;;;;
2022/09/12 12:51:39;;;;;;;1.7;0.5;;;;;;;;;;;;;
2022/09/12 12:54:04;;;;;;;0.4;0.4;;;;;;;;;;;;;
2022/09/12 12:56:29;;;;;;;0.9;0.4;;;;;;;;;;;;;
2022/09/12 12:58:55;;;;;;;0.6;0.4;;;;;;;;;;;;;
2022/09/12 13:01:20;;;;;;;0.8;0.3;;;;;;;;;;;;;
2022/09/12 13:03:45;;;;;;;0.5;0.4;;;;;;;;;;;;;
2022/09/12 13:06:12;;;;;;;0.4;0.4;;;;;;;;;;;;;
2022/09/12 13:08:37;;;;;;;1.4;0.5;;;;;;;;;;;;;
2022/09/12 13:11:02;;;;;;;0.4;0.3;;;;;;;;;;;;;
2022/09/12 13:13:27;;;;;;;0.8;0.6;;;;;;;;;;;;;
2022/09/12 13:15:52;;;;;;;2;0.4;;;;;;;;;;;;;
2022/09/12 13:18:19;;;;;;;0.4;0.4;;;;;;;;;;;;;
2022/09/12 13:20:44;;;;;;;0.7;0.4;;;;;;;;;;;;;
2022/09/12 13:23:09;;;;;;;1.5;0.4;;;;;;;;;;;;;
2022/09/12 13:25:34;;;;;;;0.2;0.2;;;;;;;;;;;;;
2022/09/12 13:28:00;;;;;;;0.3;0.3;;;;;;;;;;;;;
2022/09/12 13:30:25;;;;;;;0.5;0.5;;;;;;;;;;;;;
2022/09/12 13:32:53;;;;;;;0.5;0.5;;;;;;;;;;;;;
2022/09/12 13:35:18;;;;;;;0.8;0.4;;;;;;;;;;;;;
2022/09/12 13:37:45;;;;;;;2.9;0.9;;;;;;;;;;;;;
2022/09/12 13:40:09;;;;;;;1.1;0.4;;;;;;;;;;;;;
2022/09/12 13:42:35;;;;;;;0.5;0.4;;;;;;;;;;;;;
2022/09/12 13:45:00;;;;;;;0.4;0.4;;;;;;;;;;;;;
2022/09/12 13:47:25;;;;;;;0.3;0.3;;;;;;;;;;;;;
2022/09/12 13:49:51;;;;;;;0.4;0.4;;;;;;;;;;;;;
2022/09/12 13:52:16;;;;;;;0.6;0.5;;;;;;;;;;;;;
2022/09/12 13:54:41;;;;;;;0.5;0.5;;;;;;;;;;;;;
2022/09/12 13:57:08;;;;;;;0.4;0.4;;;;;;;;;;;;;
2022/09/12 13:59:33;;;;;;;0.4;0.4;;;;;;;;;;;;;
2022/09/12 14:02:00;;;;;;;0.4;0.4;;;;;;;;;;;;;
2022/09/12 14:06:50;;;;;;;0.4;0.4;;;;;;;;;;;;;
2022/09/12 14:09:18;;;;;;;1.2;0.5;;;;;;;;;;;;;
2022/09/12 14:11:44;;;;;;;0.3;0.3;;;;;;;;;;;;;
2022/09/12 14:14:11;;;;;;;0.4;0.4;;;;;;;;;;;;;
2022/09/12 14:16:36;;;;;;;0.7;0.6;;;;;;;;;;;;;
2022/09/12 14:19:00;;;;;;;0.9;0.5;;;;;;;;;;;;;
2022/09/12 14:21:27;;;;;;;0.8;0.8;;;;;;;;;;;;;
2022/09/12 14:23:52;;;;;;;2.9;0.6;;;;;;;;;;;;;
2022/09/12 14:26:16;;;;;;;0.4;0.4;;;;;;;;;;;;;
2022/09/12 14:28:41;;;;;;;0.6;0.6;;;;;;;;;;;;;
2022/09/12 14:31:07;;;;;;;0.9;0.5;;;;;;;;;;;;;
2022/09/12 14:33:31;;;;;;;1.4;0.6;;;;;;;;;;;;;
2022/09/12 14:35:56;;;;;;;1.4;0.5;;;;;;;;;;;;;
2022/09/12 14:38:21;;;;;;;0.5;0.5;;;;;;;;;;;;;
2022/09/12 14:40:51;;;;;;;2.3;0.5;;;;;;;;;;;;;
2022/09/12 14:43:16;;;;;;;0.8;0.5;;;;;;;;;;;;;
2022/09/12 14:45:41;;;;;;;1;0.6;;;;;;;;;;;;;
2022/09/12 14:48:06;;;;;;;1.5;0.5;;;;;;;;;;;;;
2022/09/12 14:50:31;;;;;;;0.5;0.5;;;;;;;;;;;;;
2022/09/12 14:52:56;;;;;;;0.7;0.5;;;;;;;;;;;;;
2022/09/12 14:55:22;;;;;;;0.7;0.5;;;;;;;;;;;;;
2022/09/12 14:57:49;;;;;;;0.6;0.5;;;;;;;;;;;;;
2022/09/12 15:00:13;;;;;;;1.4;0.7;;;;;;;;;;;;;
2022/09/12 15:02:38;;;;;;;0.4;0.4;;;;;;;;;;;;;
2022/09/12 15:05:05;;;;;;;0.4;0.4;;;;;;;;;;;;;
2022/09/12 15:07:30;;;;;;;0.7;0.5;;;;;;;;;;;;;
2022/09/12 15:09:55;;;;;;;0.6;0.5;;;;;;;;;;;;;
2022/09/12 15:12:20;;;;;;;1.9;0.6;;;;;;;;;;;;;
2022/09/12 15:14:45;;;;;;;0.4;0.4;;;;;;;;;;;;;
2022/09/12 15:17:11;;;;;;;1.7;0.6;;;;;;;;;;;;;
2022/09/12 15:19:36;;;;;;;0.6;0.6;;;;;;;;;;;;;
2022/09/12 15:22:02;;;;;;;1.9;0.6;;;;;;;;;;;;;
2022/09/12 15:24:27;;;;;;;1;0.6;;;;;;;;;;;;;
2022/09/12 15:26:52;;;;;;;0.7;0.6;;;;;;;;;;;;;
2022/09/12 15:29:17;;;;;;;0.7;0.5;;;;;;;;;;;;;
2022/09/12 15:31:42;;;;;;;0.9;0.5;;;;;;;;;;;;;
2022/09/12 15:34:08;;;;;;;1.2;0.5;;;;;;;;;;;;;
2022/09/12 15:36:33;;;;;;;0.8;0.8;;;;;;;;;;;;;
2022/09/12 15:38:58;;;;;;;0.5;0.5;;;;;;;;;;;;;
2022/09/12 15:41:23;;;;;;;0.5;0.5;;;;;;;;;;;;;
2022/09/12 15:43:51;;;;;;;0.6;0.5;;;;;;;;;;;;;
2022/09/12 15:46:16;;;;;;;0.9;0.8;;;;;;;;;;;;;
2022/09/12 15:48:42;;;;;;;0.5;0.5;;;;;;;;;;;;;
2022/09/12 15:51:07;;;;;;;1.3;0.5;;;;;;;;;;;;;
2022/09/12 15:53:31;;;;;;;0.9;0.5;;;;;;;;;;;;;
2022/09/12 15:55:56;;;;;;;1.4;0.7;;;;;;;;;;;;;
2022/09/12 15:58:22;;;;;;;0.6;0.6;;;;;;;;;;;;;
2022/09/12 16:00:47;;;;;;;1.4;0.7;;;;;;;;;;;;;
2022/09/12 16:03:15;;;;;;;1.3;0.9;;;;;;;;;;;;;
2022/09/12 16:05:40;;;;;;;1.2;0.8;;;;;;;;;;;;;
2022/09/12 16:08:05;;;;;;;0.7;0.7;;;;;;;;;;;;;
2022/09/12 16:10:30;;;;;;;1.7;0.7;;;;;;;;;;;;;
2022/09/12 16:12:55;;;;;;;0.6;0.6;;;;;;;;;;;;;
2022/09/12 16:15:20;;;;;;;1.3;0.9;;;;;;;;;;;;;
2022/09/12 16:17:47;;;;;;;1;0.9;;;;;;;;;;;;;
2022/09/12 16:20:12;;;;;;;1.5;0.9;;;;;;;;;;;;;
2022/09/12 16:22:38;;;;;;;1;0.9;;;;;;;;;;;;;
2022/09/12 16:25:03;;;;;;;1.5;1;;;;;;;;;;;;;
2022/09/12 16:27:30;;;;;;;1.4;1;;;;;;;;;;;;;
2022/09/12 16:29:55;;;;;;;0.7;0.7;;;;;;;;;;;;;
2022/09/12 16:32:22;;;;;;;0.8;0.6;;;;;;;;;;;;;
2022/09/12 16:34:47;;;;;;;1.1;0.7;;;;;;;;;;;;;
2022/09/12 16:37:12;;;;;;;0.7;0.7;;;;;;;;;;;;;
2022/09/12 16:39:37;;;;;;;1.6;0.6;;;;;;;;;;;;;
2022/09/12 16:42:04;;;;;;;1.6;0.8;;;;;;;;;;;;;
2022/09/12 16:44:29;;;;;;;1.1;0.8;;;;;;;;;;;;;
2022/09/12 16:46:55;;;;;;;2.5;1;;;;;;;;;;;;;
2022/09/12 16:49:20;;;;;;;1.5;0.7;;;;;;;;;;;;;
2022/09/12 16:51:46;;;;;;;2.8;0.6;;;;;;;;;;;;;
2022/09/12 16:54:10;;;;;;;2.7;1.7;;;;;;;;;;;;;
2022/09/12 16:56:37;;;;;;;2.8;1.9;;;;;;;;;;;;;
2022/09/12 16:59:03;;;;;;;1.9;1.1;;;;;;;;;;;;;
2022/09/12 17:01:29;;;;;;;3.2;1.3;;;;;;;;;;;;;
2022/09/12 17:03:55;;;;;;;1.2;1;;;;;;;;;;;;;
2022/09/12 17:06:21;;;;;;;0.8;0.7;;;;;;;;;;;;;
2022/09/12 17:08:46;;;;;;;3.1;0.8;;;;;;;;;;;;;
2022/09/12 17:11:14;;;;;;;1.7;1;;;;;;;;;;;;;
2022/09/12 17:13:39;;;;;;;3.9;1.2;;;;;;;;;;;;;
2022/09/12 17:16:05;;;;;;;1.7;1.1;;;;;;;;;;;;;
2022/09/12 17:18:30;;;;;;;1.8;1.3;;;;;;;;;;;;;
2022/09/12 17:20:55;;;;;;;1.7;1.2;;;;;;;;;;;;;
2022/09/12 17:23:20;;;;;;;2.3;1.2;;;;;;;;;;;;;
2022/09/12 17:25:46;;;;;;;2.8;1.3;;;;;;;;;;;;;
2022/09/12 17:28:11;;;;;;;2.5;1.4;;;;;;;;;;;;;
2022/09/12 17:30:39;;;;;;;2.1;1.5;;;;;;;;;;;;;
2022/09/12 17:33:04;;;;;;;1.9;1.5;;;;;;;;;;;;;
2022/09/12 17:35:41;;;;;;;3.2;1.5;;;;;;;;;;;;;
2022/09/12 17:37:59;;;;;;;2.7;1.5;;;;;;;;;;;;;
2022/09/12 17:40:24;;;;;;;1.7;1.4;;;;;;;;;;;;;
2022/09/12 17:42:52;;;;;;;1.1;1.1;;;;;;;;;;;;;
2022/09/12 17:45:17;;;;;;;1.7;1.1;;;;;;;;;;;;;
2022/09/12 17:47:43;;;;;;;2.4;1.4;;;;;;;;;;;;;
2022/09/12 17:50:08;;;;;;;1.4;1.3;;;;;;;;;;;;;
2022/09/12 17:52:36;;;;;;;2.5;1.7;;;;;;;;;;;;;
2022/09/12 17:55:01;;;;;;;4.1;1.8;;;;;;;;;;;;;
2022/09/12 17:57:28;;;;;;;1.8;1.1;;;;;;;;;;;;;
2022/09/12 17:59:53;;;;;;;2.1;1.2;;;;;;;;;;;;;
2022/09/12 18:02:21;;;;;;;2.1;1.2;;;;;;;;;;;;;
2022/09/12 18:04:49;;;;;;;5.7;1.5;;;;;;;;;;;;;
2022/09/12 18:07:14;;;;;;;2.1;1;;;;;;;;;;;;;
2022/09/12 18:09:39;;;;;;;2;1;;;;;;;;;;;;;
2022/09/12 18:12:04;;;;;;;2.6;1.9;;;;;;;;;;;;;
2022/09/12 18:14:31;;;;;;;6.1;2;;;;;;;;;;;;;
2022/09/12 18:16:58;;;;;;;9.9;4.9;;;;;;;;;;;;;
2022/09/12 18:19:23;;;;;;;5.7;2.9;;;;;;;;;;;;;
2022/09/12 18:21:48;;;;;;;4.2;3.3;;;;;;;;;;;;;
2022/09/12 18:24:14;;;;;;;2.1;1.4;;;;;;;;;;;;;
2022/09/12 18:26:39;;;;;;;3.6;1.7;;;;;;;;;;;;;
2022/09/12 18:29:06;;;;;;;2.2;1.6;;;;;;;;;;;;;
2022/09/12 18:31:31;;;;;;;3.7;1.9;;;;;;;;;;;;;
2022/09/12 18:33:58;;;;;;;3.8;1.9;;;;;;;;;;;;;